Time;durP1;ratioP1;P1;durP2;ratioP2;P2;SDS_P1;SDS_P2;PMS_P1;PMS_P2;Temp;Humidity;BMP_temperature;BMP_pressure;BME280_temperature;BME280_humidity;BME280_pressure;Samples;Min_cycle;Max_cycle;Signal;HPM_P1;HPM_P2
2022/08/10 00:00:25;;;;;;;10.20;9.20;;;14.80;99.90;;;;;;5062053;28;20122;-49
2022/08/10 00:02:56;;;;;;;12.68;10.38;;;14.80;99.90;;;;;;5062421;28;20060;-49
2022/08/10 00:05:23;;;;;;;10.60;9.48;;;14.80;99.90;;;;;;5060796;28;20056;-48
2022/08/10 00:07:49;;;;;;;11.52;9.32;;;14.70;99.90;;;;;;5063249;28;20048;-49
2022/08/10 00:10:17;;;;;;;10.60;9.57;;;14.70;99.90;;;;;;5069046;28;20052;-50
2022/08/10 00:12:44;;;;;;;9.95;8.82;;;14.70;99.90;;;;;;5068814;28;20059;-49
2022/08/10 00:15:12;;;;;;;10.23;9.20;;;14.70;99.90;;;;;;5068885;28;20044;-54
2022/08/10 00:17:38;;;;;;;10.73;9.55;;;14.70;99.90;;;;;;5068292;28;20052;-50
2022/08/10 00:20:05;;;;;;;11.48;10.48;;;14.70;99.90;;;;;;5067848;28;20044;-47
2022/08/10 00:22:30;;;;;;;14.00;9.90;;;14.70;99.90;;;;;;5049653;28;20113;-50
2022/08/10 00:24:57;;;;;;;13.40;10.70;;;14.70;99.90;;;;;;5049994;28;20060;-49
2022/08/10 00:27:23;;;;;;;11.00;9.77;;;14.60;99.90;;;;;;5067878;28;20088;-52
2022/08/10 00:29:49;;;;;;;12.25;9.52;;;14.70;99.90;;;;;;5068173;28;20056;-49
2022/08/10 00:32:15;;;;;;;12.68;10.35;;;14.70;99.90;;;;;;5068002;28;20049;-52
2022/08/10 00:34:41;;;;;;;11.40;10.02;;;14.60;99.90;;;;;;5049094;28;20057;-52
2022/08/10 00:37:08;;;;;;;12.07;10.90;;;14.60;99.90;;;;;;5048903;28;20057;-52
2022/08/10 00:39:33;;;;;;;12.25;10.20;;;14.60;99.90;;;;;;5068082;28;20044;-48
2022/08/10 00:41:59;;;;;;;11.05;9.93;;;14.60;99.90;;;;;;5048864;28;20061;-50
2022/08/10 00:44:25;;;;;;;11.48;10.30;;;14.50;99.90;;;;;;5068442;28;20076;-50
2022/08/10 00:46:51;;;;;;;12.43;10.80;;;14.50;99.90;;;;;;5049184;28;20049;-49
2022/08/10 00:49:18;;;;;;;11.40;10.23;;;14.50;99.90;;;;;;5048747;28;20056;-48
2022/08/10 00:51:44;;;;;;;13.50;10.13;;;14.50;99.90;;;;;;5068037;28;20125;-51
2022/08/10 00:54:10;;;;;;;11.20;9.98;;;14.50;99.90;;;;;;5048123;28;20056;-50
2022/08/10 00:56:36;;;;;;;11.05;9.98;;;14.50;99.90;;;;;;5068093;28;20048;-48
2022/08/10 00:59:03;;;;;;;11.48;9.68;;;14.40;99.90;;;;;;5067166;28;20044;-51
2022/08/10 01:01:29;;;;;;;12.32;10.40;;;14.40;99.90;;;;;;5045934;28;20141;-48
2022/08/10 01:03:55;;;;;;;10.55;9.52;;;14.50;99.90;;;;;;5047963;28;20052;-49
2022/08/10 01:06:59;;;;;;;12.52;11.25;;;14.40;99.90;;;;;;5047668;28;20117;-49
2022/08/10 01:09:42;;;;;;;11.95;10.85;;;14.40;99.90;;;;;;5042887;28;20059;-49
2022/08/10 01:12:41;;;;;;;13.00;11.57;;;14.40;99.90;;;;;;5046563;28;20060;-49
2022/08/10 01:15:35;;;;;;;12.05;10.35;;;14.30;99.90;;;;;;4942660;29;20121;-50
2022/08/10 01:18:17;;;;;;;12.38;11.27;;;14.30;99.90;;;;;;4946173;28;20860;-47
2022/08/10 01:21:02;;;;;;;12.15;10.85;;;14.20;99.90;;;;;;4923872;29;20449;-51
2022/08/10 01:23:53;;;;;;;12.65;11.45;;;14.20;99.90;;;;;;4924309;29;20067;-51
2022/08/10 01:26:38;;;;;;;11.98;10.88;;;14.20;99.90;;;;;;4925173;29;20139;-49
2022/08/10 01:29:31;;;;;;;12.45;11.15;;;14.10;99.90;;;;;;4927921;29;20055;-49
2022/08/10 01:32:03;;;;;;;12.05;10.80;;;14.10;99.90;;;;;;4925507;29;20102;-48
2022/08/10 01:34:55;;;;;;;12.43;11.27;;;14.10;99.90;;;;;;4927568;29;20051;-48
2022/08/10 01:37:25;;;;;;;13.18;11.48;;;14.10;99.90;;;;;;4943383;29;20055;-50
2022/08/10 01:39:56;;;;;;;14.88;12.00;;;14.10;99.90;;;;;;4927384;29;20067;-49
2022/08/10 01:42:24;;;;;;;15.43;12.85;;;14.10;99.90;;;;;;4939465;29;20058;-50
2022/08/10 01:44:56;;;;;;;15.00;11.90;;;14.10;99.90;;;;;;4943214;29;20114;-48
2022/08/10 01:50:24;;;;;;;13.00;11.70;;;14.10;99.90;;;;;;4927626;29;20059;-50
2022/08/10 01:52:52;;;;;;;14.73;12.43;;;14.00;99.90;;;;;;5019403;28;20057;-49
2022/08/10 01:55:19;;;;;;;13.65;12.15;;;14.10;99.90;;;;;;5044289;28;20957;-50
2022/08/10 01:57:46;;;;;;;12.93;11.40;;;14.00;99.90;;;;;;5044074;28;20488;-51
2022/08/10 02:00:13;;;;;;;15.43;13.10;;;14.00;99.90;;;;;;5042504;28;20144;-53
2022/08/10 02:02:40;;;;;;;14.27;12.85;;;14.10;99.90;;;;;;5042682;28;20762;-54
2022/08/10 02:20:45;;;;;;;15.52;13.57;;;14.10;99.90;;;;;;4984953;28;21480;-50
2022/08/10 02:23:27;;;;;;;14.68;12.77;;;14.20;99.90;;;;;;4994008;28;20428;-49
2022/08/10 02:25:57;;;;;;;14.30;12.82;;;14.10;99.90;;;;;;4965098;28;20094;-53
2022/08/10 02:28:26;;;;;;;14.52;13.05;;;14.10;99.90;;;;;;4962008;28;20572;-48
2022/08/10 02:30:54;;;;;;;16.02;13.18;;;14.00;99.90;;;;;;4977862;28;20051;-48
2022/08/10 02:33:23;;;;;;;15.25;13.65;;;13.90;99.90;;;;;;4957617;28;20509;-51
2022/08/10 02:35:50;;;;;;;16.33;14.13;;;14.00;99.90;;;;;;4960906;28;20112;-51
2022/08/10 02:38:20;;;;;;;15.23;13.63;;;13.90;99.90;;;;;;4959188;28;20089;-48
2022/08/10 02:40:51;;;;;;;14.63;13.18;;;13.90;99.90;;;;;;4960641;28;20054;-48
2022/08/10 02:43:34;;;;;;;15.07;13.38;;;13.90;99.90;;;;;;4959740;28;20051;-49
2022/08/10 02:46:15;;;;;;;16.00;14.30;;;13.90;99.90;;;;;;4960212;28;20108;-52
2022/08/10 02:48:53;;;;;;;16.48;14.88;;;13.90;99.90;;;;;;4959914;28;20043;-49
2022/08/10 02:51:25;;;;;;;17.83;15.55;;;13.90;99.90;;;;;;4959805;28;20055;-51
2022/08/10 02:54:00;;;;;;;19.33;15.85;;;13.80;99.90;;;;;;4968286;28;20065;-49
2022/08/10 02:56:56;;;;;;;16.08;14.00;;;13.80;99.90;;;;;;4973091;28;20057;-49
2022/08/10 02:59:28;;;;;;;17.25;15.27;;;13.80;99.90;;;;;;4992725;28;20061;-49
2022/08/10 03:01:58;;;;;;;19.85;15.18;;;13.80;99.90;;;;;;5001498;28;20065;-48
2022/08/10 03:04:46;;;;;;;17.27;15.02;;;13.80;99.90;;;;;;5011677;28;20072;-51
2022/08/10 03:07:18;;;;;;;16.13;14.52;;;13.80;99.90;;;;;;4990941;28;20064;-52
2022/08/10 03:09:46;;;;;;;17.23;13.50;;;13.80;99.90;;;;;;5008982;28;20096;-52
2022/08/10 03:12:15;;;;;;;16.40;14.80;;;13.80;99.90;;;;;;4996147;28;20104;-51
2022/08/10 03:14:43;;;;;;;18.05;15.38;;;13.80;99.90;;;;;;4999353;28;20050;-51
2022/08/10 03:17:11;;;;;;;17.20;15.38;;;13.80;99.90;;;;;;4986399;28;20057;-50
2022/08/10 03:19:38;;;;;;;17.20;15.50;;;13.80;99.90;;;;;;4993740;28;20058;-49
2022/08/10 03:22:04;;;;;;;19.63;16.15;;;13.80;99.90;;;;;;4968625;28;20101;-51
2022/08/10 03:24:32;;;;;;;19.45;15.95;;;13.80;99.90;;;;;;4987131;28;20149;-50
2022/08/10 03:26:59;;;;;;;16.85;15.13;;;13.80;99.90;;;;;;4987376;28;20186;-56
2022/08/10 03:29:25;;;;;;;17.77;15.77;;;13.80;99.90;;;;;;4984510;28;20073;-51
2022/08/10 03:31:52;;;;;;;19.50;15.82;;;13.70;99.90;;;;;;4992051;28;20049;-52
2022/08/10 03:34:20;;;;;;;19.48;15.98;;;13.70;99.90;;;;;;4988438;28;20050;-52
2022/08/10 03:36:47;;;;;;;19.70;16.40;;;13.70;99.90;;;;;;4963864;28;20063;-50
2022/08/10 03:39:14;;;;;;;21.38;15.50;;;13.70;99.90;;;;;;5026268;28;20061;-49
2022/08/10 03:41:54;;;;;;;15.98;13.52;;;13.70;99.90;;;;;;4947936;28;20055;-52
2022/08/10 03:44:24;;;;;;;16.73;13.93;;;13.70;99.90;;;;;;4945118;28;20065;-49
2022/08/10 03:46:52;;;;;;;18.95;15.43;;;13.70;99.90;;;;;;4948999;28;20058;-49
2022/08/10 03:49:20;;;;;;;17.55;14.20;;;13.80;99.90;;;;;;4952458;28;20052;-48
2022/08/10 03:51:48;;;;;;;17.33;13.93;;;13.70;99.90;;;;;;4955178;28;20788;-49
2022/08/10 03:54:17;;;;;;;15.32;13.35;;;13.70;99.90;;;;;;4947338;28;20051;-52
2022/08/10 03:56:44;;;;;;;15.52;13.48;;;13.70;99.90;;;;;;4952715;28;20830;-48
2022/08/10 03:59:13;;;;;;;15.90;14.13;;;13.70;99.90;;;;;;4951056;28;20505;-50
2022/08/10 04:01:41;;;;;;;15.60;13.65;;;13.70;99.90;;;;;;4952539;28;20138;-51
2022/08/10 04:04:10;;;;;;;15.25;13.48;;;13.60;99.90;;;;;;4954381;28;20047;-49
2022/08/10 04:06:36;;;;;;;18.65;13.90;;;13.70;99.90;;;;;;4951864;28;20055;-49
2022/08/10 04:09:03;;;;;;;15.88;14.15;;;13.70;99.90;;;;;;4956636;28;20047;-49
2022/08/10 04:11:29;;;;;;;17.33;14.70;;;13.70;99.90;;;;;;4958760;28;20531;-53
2022/08/10 04:13:54;;;;;;;18.90;14.13;;;13.70;99.90;;;;;;4932015;28;20063;-51
2022/08/10 04:16:20;;;;;;;18.63;15.27;;;13.70;99.90;;;;;;4944003;28;20047;-49
2022/08/10 04:18:46;;;;;;;18.92;14.13;;;13.70;99.90;;;;;;4948426;28;20066;-49
2022/08/10 04:21:22;;;;;;;21.55;14.38;;;13.80;99.90;;;;;;4943760;28;20055;-48
2022/08/10 04:23:50;;;;;;;17.83;13.45;;;13.80;99.90;;;;;;4944375;28;20051;-48
2022/08/10 04:26:16;;;;;;;16.58;13.52;;;13.80;99.90;;;;;;4943904;28;20089;-49
2022/08/10 04:28:43;;;;;;;18.38;14.27;;;13.80;99.90;;;;;;4941220;28;20047;-51
2022/08/10 04:31:13;;;;;;;18.17;14.43;;;13.80;99.90;;;;;;4943885;28;20043;-51
2022/08/10 04:33:43;;;;;;;17.90;14.63;;;13.80;99.90;;;;;;4943500;28;20131;-53
2022/08/10 04:36:11;;;;;;;17.88;15.95;;;13.90;99.90;;;;;;4944099;28;20117;-51
2022/08/10 04:38:39;;;;;;;18.23;15.52;;;13.90;99.90;;;;;;4946594;28;20054;-54
2022/08/10 04:41:05;;;;;;;18.50;15.23;;;14.00;99.90;;;;;;4944660;28;20051;-52
2022/08/10 04:43:32;;;;;;;16.40;14.63;;;14.10;99.90;;;;;;4946265;28;20520;-55
2022/08/10 04:45:59;;;;;;;21.10;15.68;;;14.10;99.90;;;;;;4945366;28;20448;-51
2022/08/10 04:48:25;;;;;;;19.42;15.45;;;14.20;99.90;;;;;;4948917;28;20098;-51
2022/08/10 04:50:51;;;;;;;17.63;15.35;;;14.30;99.90;;;;;;4985485;28;20059;-51
2022/08/10 04:53:17;;;;;;;19.80;16.83;;;14.40;99.90;;;;;;4943098;28;20501;-50
2022/08/10 04:55:43;;;;;;;18.35;15.23;;;14.50;99.90;;;;;;4944302;28;20059;-48
2022/08/10 04:58:09;;;;;;;16.05;14.43;;;14.60;99.90;;;;;;4944925;28;20047;-49
2022/08/10 05:00:36;;;;;;;16.88;15.20;;;14.80;99.90;;;;;;4944671;28;20108;-48
2022/08/10 05:03:02;;;;;;;15.85;14.20;;;15.30;99.90;;;;;;4949072;28;20041;-52
2022/08/10 05:05:28;;;;;;;16.25;14.55;;;16.10;99.90;;;;;;4945167;28;20074;-48
2022/08/10 05:07:54;;;;;;;15.30;13.70;;;17.00;99.90;;;;;;4945358;28;20488;-48
2022/08/10 05:10:32;;;;;;;17.40;14.50;;;17.90;99.90;;;;;;4944022;28;20051;-49
2022/08/10 05:12:58;;;;;;;14.55;13.15;;;18.80;99.90;;;;;;4937388;28;20048;-49
2022/08/10 05:15:26;;;;;;;14.93;13.35;;;19.60;99.90;;;;;;4935166;28;20166;-48
2022/08/10 05:17:52;;;;;;;15.05;13.45;;;20.30;99.90;;;;;;4942772;28;20133;-49
2022/08/10 05:20:19;;;;;;;13.40;12.20;;;20.90;99.90;;;;;;4944008;28;20051;-50
2022/08/10 05:22:45;;;;;;;14.00;12.55;;;21.20;99.90;;;;;;4944044;28;20055;-50
2022/08/10 05:25:13;;;;;;;12.65;11.43;;;21.70;99.90;;;;;;4943097;29;20078;-49
2022/08/10 05:27:41;;;;;;;12.35;11.05;;;22.40;99.90;;;;;;4943319;28;20059;-52
2022/08/10 05:30:12;;;;;;;11.90;10.80;;;23.00;99.90;;;;;;4942903;28;20134;-49
2022/08/10 05:32:38;;;;;;;12.05;10.95;;;23.30;99.90;;;;;;4931643;28;20081;-51
2022/08/10 05:35:05;;;;;;;12.30;11.07;;;23.70;99.90;;;;;;4943627;28;20059;-48
2022/08/10 05:37:31;;;;;;;12.85;11.65;;;24.10;99.90;;;;;;4932800;28;20059;-51
2022/08/10 05:39:57;;;;;;;10.77;9.77;;;24.40;99.90;;;;;;4944910;28;20054;-51
2022/08/10 05:42:25;;;;;;;11.10;10.20;;;24.90;99.90;;;;;;4932635;28;20066;-52
2022/08/10 05:44:51;;;;;;;11.55;10.55;;;25.20;99.90;;;;;;4941827;28;20063;-54
2022/08/10 05:47:18;;;;;;;11.85;10.35;;;25.20;99.90;;;;;;4943752;28;20051;-50
2022/08/10 05:49:46;;;;;;;10.95;9.95;;;25.70;99.90;;;;;;4943973;28;20541;-49
2022/08/10 05:52:12;;;;;;;10.75;9.65;;;26.10;99.90;;;;;;4943434;28;20051;-51
2022/08/10 05:54:38;;;;;;;11.15;10.02;;;26.00;99.90;;;;;;4942831;28;20047;-50
2022/08/10 05:57:05;;;;;;;10.15;9.25;;;26.10;99.90;;;;;;4942697;28;20047;-51
2022/08/10 05:59:36;;;;;;;9.10;8.20;;;26.20;99.90;;;;;;4957553;28;20848;-54
2022/08/10 06:02:07;;;;;;;9.38;8.57;;;26.80;99.90;;;;;;4943437;28;20051;-57
2022/08/10 06:04:39;;;;;;;9.57;8.68;;;26.90;99.20;;;;;;4946455;28;20082;-55
2022/08/10 06:07:07;;;;;;;9.27;8.40;;;27.10;99.10;;;;;;4948099;28;20066;-53
2022/08/10 06:09:36;;;;;;;8.73;7.85;;;27.90;99.40;;;;;;4943988;28;20549;-54
2022/08/10 06:12:03;;;;;;;9.05;8.18;;;28.30;98.20;;;;;;4942833;28;20276;-50
2022/08/10 06:17:18;;;;;;;8.80;8.10;;;28.20;97.00;;;;;;4942935;28;20501;-54
2022/08/10 06:19:45;;;;;;;8.70;7.80;;;28.20;97.60;;;;;;4947884;28;20546;-52
2022/08/10 06:22:12;;;;;;;7.78;7.07;;;28.50;97.30;;;;;;4943293;28;20055;-54
2022/08/10 06:24:41;;;;;;;8.52;7.80;;;28.90;97.30;;;;;;4975729;28;20411;-52
2022/08/10 06:27:08;;;;;;;7.80;7.10;;;28.50;95.90;;;;;;4966500;28;20658;-55
2022/08/10 06:29:39;;;;;;;8.23;7.43;;;29.10;95.40;;;;;;4942473;28;20093;-51
2022/08/10 06:32:07;;;;;;;9.00;7.30;;;28.80;95.70;;;;;;4944392;28;20449;-55
2022/08/10 06:34:51;;;;;;;8.00;7.30;;;29.10;95.80;;;;;;4942625;29;20536;-53
2022/08/10 06:37:19;;;;;;;9.27;6.80;;;29.50;95.00;;;;;;4941888;28;20055;-53
2022/08/10 06:39:45;;;;;;;8.60;7.80;;;29.60;94.90;;;;;;4942337;28;20721;-53
2022/08/10 06:42:36;;;;;;;8.18;7.03;;;29.60;95.20;;;;;;4941077;29;20558;-55
2022/08/10 06:45:19;;;;;;;7.03;6.32;;;29.60;95.20;;;;;;4943351;28;20171;-53
2022/08/10 06:48:01;;;;;;;6.90;6.20;;;29.80;94.70;;;;;;4944359;28;20051;-52
2022/08/10 06:50:38;;;;;;;8.43;6.90;;;30.20;94.30;;;;;;4944759;28;20524;-54
2022/08/10 06:53:16;;;;;;;6.85;6.25;;;30.20;94.00;;;;;;4946296;28;20059;-54
2022/08/10 06:55:46;;;;;;;11.13;6.45;;;30.30;93.60;;;;;;4944153;28;20058;-54
2022/08/10 06:58:14;;;;;;;6.97;6.32;;;30.10;94.20;;;;;;4943472;28;20440;-53
2022/08/10 07:00:50;;;;;;;6.72;5.82;;;30.00;93.90;;;;;;4941598;28;20047;-55
2022/08/10 07:03:16;;;;;;;6.32;5.80;;;30.20;94.00;;;;;;4946897;28;20398;-53
2022/08/10 07:05:49;;;;;;;6.22;5.63;;;30.20;93.60;;;;;;4942984;28;20055;-56
2022/08/10 07:08:20;;;;;;;6.20;5.60;;;30.20;93.70;;;;;;4954560;28;20078;-55
2022/08/10 07:10:48;;;;;;;9.35;6.25;;;29.90;93.90;;;;;;4945445;28;20051;-56
2022/08/10 07:13:19;;;;;;;8.55;6.40;;;29.10;94.70;;;;;;4935980;28;20060;-56
2022/08/10 07:15:48;;;;;;;6.90;6.18;;;28.40;95.10;;;;;;4940088;28;20054;-56
2022/08/10 07:18:16;;;;;;;6.68;5.72;;;28.20;95.30;;;;;;4948455;28;20071;-57
2022/08/10 07:20:44;;;;;;;9.75;5.60;;;27.90;96.00;;;;;;4958382;28;20120;-56
2022/08/10 07:23:12;;;;;;;7.00;5.93;;;28.00;95.60;;;;;;4964190;28;20051;-57
2022/08/10 07:25:45;;;;;;;7.80;5.95;;;27.90;95.60;;;;;;4961224;28;20509;-58
2022/08/10 07:28:13;;;;;;;6.15;5.55;;;27.40;96.10;;;;;;4953324;28;20051;-55
2022/08/10 07:30:41;;;;;;;6.88;5.40;;;27.30;96.50;;;;;;4971148;28;20055;-55
2022/08/10 07:33:08;;;;;;;6.03;5.38;;;27.10;96.40;;;;;;4962592;28;20057;-56
2022/08/10 07:35:36;;;;;;;6.65;5.97;;;26.90;96.80;;;;;;4947821;28;20514;-56
2022/08/10 07:38:09;;;;;;;6.55;5.95;;;26.90;96.70;;;;;;4945276;28;20638;-56
2022/08/10 07:40:35;;;;;;;;;;;26.70;97.00;;;;;;4946108;28;20078;-54
2022/08/10 07:43:02;;;;;;;5.82;5.30;;;26.40;98.20;;;;;;4945836;28;19926;-55
2022/08/10 07:45:32;;;;;;;7.88;5.60;;;26.40;97.70;;;;;;4945296;28;20058;-55
2022/08/10 07:48:02;;;;;;;6.70;5.80;;;26.50;97.60;;;;;;4945501;28;20069;-57
2022/08/10 07:50:29;;;;;;;8.35;6.18;;;26.50;97.80;;;;;;4945354;28;20051;-55
2022/08/10 07:53:01;;;;;;;8.40;5.80;;;26.50;97.60;;;;;;4944990;28;20133;-56
2022/08/10 07:55:28;;;;;;;7.07;6.37;;;26.20;97.90;;;;;;4935064;28;20070;-56
2022/08/10 07:57:56;;;;;;;5.78;5.25;;;26.20;97.90;;;;;;4944941;28;20170;-56
2022/08/10 08:00:24;;;;;;;6.00;5.40;;;26.20;98.50;;;;;;4943747;28;20658;-56
2022/08/10 08:02:56;;;;;;;6.28;5.50;;;26.20;98.10;;;;;;4966392;28;20050;-57
2022/08/10 08:05:25;;;;;;;5.97;5.33;;;26.10;98.20;;;;;;4944925;28;20055;-57
2022/08/10 08:07:52;;;;;;;6.00;5.40;;;25.90;98.50;;;;;;4945583;28;20047;-56
2022/08/10 08:10:22;;;;;;;6.70;6.10;;;25.90;98.70;;;;;;4945890;28;20112;-57
2022/08/10 08:12:50;;;;;;;7.28;4.75;;;25.80;98.80;;;;;;4937796;28;20055;-56
2022/08/10 08:15:22;;;;;;;5.97;5.38;;;25.90;98.60;;;;;;4938159;28;20100;-57
2022/08/10 08:17:55;;;;;;;10.80;5.95;;;25.90;99.10;;;;;;4953141;28;20062;-56
2022/08/10 08:20:29;;;;;;;7.70;5.80;;;25.70;99.20;;;;;;4940756;28;20063;-57
2022/08/10 08:22:56;;;;;;;5.50;4.82;;;25.50;99.30;;;;;;4984898;28;20095;-56
2022/08/10 08:25:24;;;;;;;5.72;5.20;;;25.70;99.50;;;;;;4943460;28;20145;-56
2022/08/10 08:27:54;;;;;;;7.40;5.45;;;25.80;99.20;;;;;;4933023;28;20121;-56
2022/08/10 08:30:22;;;;;;;9.25;5.60;;;25.80;98.70;;;;;;4943890;28;20472;-56
2022/08/10 08:32:49;;;;;;;10.27;6.20;;;25.80;99.30;;;;;;4942509;29;20062;-57
2022/08/10 08:35:18;;;;;;;6.28;4.28;;;25.90;99.50;;;;;;4943660;28;20077;-57
2022/08/10 08:37:51;;;;;;;7.15;4.82;;;26.00;99.60;;;;;;4944377;28;20596;-57
2022/08/10 08:40:26;;;;;;;8.05;5.18;;;26.10;99.30;;;;;;4928807;28;20086;-57
2022/08/10 08:43:27;;;;;;;5.63;4.78;;;25.90;99.00;;;;;;4985897;28;20049;-57
2022/08/10 08:46:08;;;;;;;7.45;4.28;;;26.10;99.70;;;;;;4934839;28;20531;-57
2022/08/10 08:48:48;;;;;;;10.75;5.13;;;26.10;99.30;;;;;;4937301;28;20055;-57
2022/08/10 08:51:24;;;;;;;6.70;5.35;;;26.00;98.60;;;;;;4937680;28;20059;-57
2022/08/10 08:54:02;;;;;;;7.15;5.07;;;26.00;98.90;;;;;;4938920;29;20058;-57
2022/08/10 08:57:26;;;;;;;8.27;4.85;;;25.70;98.70;;;;;;4935558;28;21170;-57
2022/08/10 09:00:17;;;;;;;6.28;4.32;;;25.80;99.90;;;;;;4896548;28;20060;-56
2022/08/10 09:03:07;;;;;;;7.10;4.30;;;26.00;99.00;;;;;;4877711;28;20086;-57
2022/08/10 09:06:00;;;;;;;11.68;5.75;;;26.00;99.40;;;;;;4903848;28;20123;-57
2022/08/10 09:08:31;;;;;;;;;;;26.20;99.30;;;;;;4885790;28;20095;-57
2022/08/10 09:11:12;;;;;;;7.18;4.38;;;26.10;98.60;;;;;;4897669;28;19923;-58
2022/08/10 09:13:49;;;;;;;5.25;3.40;;;26.10;98.90;;;;;;4895534;28;20062;-57
2022/08/10 09:16:41;;;;;;;4.60;3.95;;;26.10;98.80;;;;;;4894342;29;20091;-57
2022/08/10 09:19:32;;;;;;;7.57;4.40;;;26.20;99.30;;;;;;4897644;28;20067;-58
2022/08/10 09:22:04;;;;;;;7.07;4.47;;;26.30;98.30;;;;;;4891992;28;20103;-56
2022/08/10 09:24:47;;;;;;;6.40;3.80;;;26.20;98.60;;;;;;4916820;28;20050;-57
2022/08/10 09:27:33;;;;;;;4.93;3.92;;;26.30;98.90;;;;;;4903264;28;20091;-57
2022/08/10 09:30:09;;;;;;;5.90;3.78;;;26.40;98.20;;;;;;4911467;28;20635;-57
2022/08/10 09:32:52;;;;;;;6.75;4.18;;;26.30;98.30;;;;;;4903118;28;20173;-57
2022/08/10 09:35:48;;;;;;;4.82;3.90;;;26.50;98.30;;;;;;4918239;28;20059;-57
2022/08/10 09:38:44;;;;;;;11.73;4.35;;;26.60;98.20;;;;;;4935955;28;20055;-57
2022/08/10 09:41:32;;;;;;;6.32;4.00;;;26.60;98.10;;;;;;4936014;28;20073;-58
2022/08/10 09:44:35;;;;;;;5.47;3.42;;;26.60;97.90;;;;;;4945851;28;20055;-57
2022/08/10 09:47:16;;;;;;;5.72;3.65;;;26.70;98.90;;;;;;4945215;28;20068;-57
2022/08/10 09:50:04;;;;;;;8.40;3.80;;;26.70;97.00;;;;;;4945582;28;20051;-57
2022/08/10 09:53:01;;;;;;;5.05;4.30;;;26.70;97.60;;;;;;4935497;28;20112;-58
2022/08/10 09:56:09;;;;;;;5.15;3.50;;;26.70;96.80;;;;;;4943770;28;20138;-58
2022/08/10 09:58:57;;;;;;;5.13;3.13;;;26.90;97.00;;;;;;4941770;28;20388;-57
2022/08/10 10:01:39;;;;;;;7.50;3.28;;;26.90;97.00;;;;;;4939670;28;20382;-59
2022/08/10 10:04:23;;;;;;;4.82;3.17;;;26.90;96.50;;;;;;4942115;28;20091;-58
2022/08/10 10:06:54;;;;;;;3.95;3.05;;;26.90;96.70;;;;;;4944355;28;20467;-58
2022/08/10 10:09:30;;;;;;;5.88;2.90;;;26.90;96.90;;;;;;4946321;28;20564;-58
2022/08/10 10:12:21;;;;;;;5.63;3.28;;;27.00;95.50;;;;;;4942479;28;20051;-57
2022/08/10 10:15:34;;;;;;;4.95;3.30;;;26.90;95.40;;;;;;4963005;28;20080;-58
2022/08/10 10:18:22;;;;;;;5.35;3.00;;;26.90;95.50;;;;;;4950156;28;20047;-57
2022/08/10 10:21:01;;;;;;;6.45;3.63;;;26.90;95.90;;;;;;4950842;28;20599;-58
2022/08/10 10:23:46;;;;;;;5.95;3.22;;;27.00;95.80;;;;;;4959042;28;20055;-58
2022/08/10 10:26:17;;;;;;;7.30;3.50;;;27.00;96.00;;;;;;4942525;28;20055;-58
2022/08/10 10:28:49;;;;;;;6.35;3.15;;;27.20;95.60;;;;;;4948126;28;20051;-58
2022/08/10 10:31:29;;;;;;;5.55;3.00;;;27.00;95.10;;;;;;4937341;28;20436;-58
2022/08/10 10:34:17;;;;;;;3.97;3.08;;;27.00;94.90;;;;;;4949348;28;20043;-58
2022/08/10 10:36:44;;;;;;;2.88;2.60;;;27.00;95.30;;;;;;4950213;28;20169;-58
2022/08/10 10:39:17;;;;;;;4.40;2.47;;;27.00;95.40;;;;;;4970154;28;20789;-58
2022/08/10 10:42:05;;;;;;;5.18;2.50;;;27.20;95.50;;;;;;4969252;28;20726;-58
2022/08/10 10:44:54;;;;;;;5.28;2.90;;;27.30;95.40;;;;;;4972710;28;20138;-58
2022/08/10 10:47:36;;;;;;;6.70;2.80;;;27.40;95.10;;;;;;4958965;28;20062;-58
2022/08/10 10:50:17;;;;;;;4.85;2.65;;;27.30;95.10;;;;;;4950420;28;20055;-58
2022/08/10 10:53:07;;;;;;;3.97;2.53;;;27.40;94.40;;;;;;4949609;28;20437;-59
2022/08/10 10:55:55;;;;;;;3.83;2.35;;;27.40;94.10;;;;;;4955703;28;20468;-58
2022/08/10 10:58:29;;;;;;;6.63;2.60;;;27.20;94.30;;;;;;4953973;28;20058;-58
2022/08/10 11:01:20;;;;;;;4.72;2.55;;;27.20;93.50;;;;;;4945852;28;20554;-58
2022/08/10 11:03:52;;;;;;;7.00;2.97;;;27.10;93.60;;;;;;4965288;28;20520;-58
2022/08/10 11:06:46;;;;;;;4.10;2.35;;;27.20;94.10;;;;;;4946773;28;20081;-58
2022/08/10 11:09:28;;;;;;;4.32;2.20;;;27.20;93.70;;;;;;4952949;28;20055;-58
2022/08/10 11:12:00;;;;;;;5.00;2.35;;;27.40;94.50;;;;;;4956651;28;20415;-59
2022/08/10 11:14:50;;;;;;;4.68;2.67;;;27.50;93.70;;;;;;4954274;28;20133;-59
2022/08/10 11:17:32;;;;;;;5.00;2.45;;;27.40;92.90;;;;;;4942251;28;20062;-59
2022/08/10 11:20:15;;;;;;;7.07;1.97;;;27.50;93.20;;;;;;4943091;28;20510;-58
2022/08/10 11:23:16;;;;;;;3.00;2.15;;;27.40;93.00;;;;;;4941594;28;20135;-59
2022/08/10 11:25:49;;;;;;;4.10;2.10;;;27.60;94.00;;;;;;4947210;28;20086;-61
2022/08/10 11:28:50;;;;;;;3.45;2.25;;;27.60;93.90;;;;;;4939722;28;20092;-59
2022/08/10 11:31:38;;;;;;;7.28;2.38;;;27.70;92.90;;;;;;4985457;28;20066;-58
2022/08/10 11:34:30;;;;;;;4.07;1.88;;;27.80;93.60;;;;;;4963400;28;20135;-59
2022/08/10 11:37:38;;;;;;;2.85;1.92;;;27.80;92.60;;;;;;4962389;28;20208;-58
2022/08/10 11:40:27;;;;;;;4.22;2.10;;;27.70;92.70;;;;;;4946120;28;20070;-58
2022/08/10 11:42:55;;;;;;;4.65;1.90;;;27.70;92.00;;;;;;4954026;28;20062;-59
2022/08/10 11:45:27;;;;;;;4.43;2.22;;;27.80;92.40;;;;;;4930096;28;20474;-59
2022/08/10 11:48:01;;;;;;;4.28;2.55;;;27.90;93.00;;;;;;4954731;28;20066;-59
2022/08/10 11:50:35;;;;;;;4.10;2.10;;;28.00;92.60;;;;;;4956199;28;20050;-59
2022/08/10 11:53:26;;;;;;;3.30;2.08;;;27.90;92.70;;;;;;4940837;28;20053;-59
2022/08/10 11:55:57;;;;;;;3.22;2.00;;;27.90;92.50;;;;;;4943812;28;21082;-59
2022/08/10 12:01:16;;;;;;;2.45;1.80;;;28.00;92.00;;;;;;4954811;28;20059;-60
2022/08/10 12:03:45;;;;;;;3.60;1.98;;;28.10;92.50;;;;;;4950018;28;20059;-59
2022/08/10 12:06:15;;;;;;;3.47;1.90;;;28.10;92.50;;;;;;4960313;28;20070;-59
2022/08/10 12:08:44;;;;;;;2.13;1.77;;;28.10;92.20;;;;;;4928175;28;20055;-59
2022/08/10 12:11:15;;;;;;;3.38;1.60;;;28.10;92.00;;;;;;4946984;28;20094;-59
2022/08/10 12:14:14;;;;;;;2.67;1.50;;;28.00;91.50;;;;;;4950279;28;20662;-59
2022/08/10 12:16:46;;;;;;;3.83;1.80;;;28.10;91.50;;;;;;4945995;28;20059;-58
2022/08/10 12:19:24;;;;;;;4.68;1.73;;;27.90;91.10;;;;;;4942451;28;20432;-58
2022/08/10 12:22:00;;;;;;;4.22;2.20;;;27.90;90.90;;;;;;4943352;28;20043;-59
2022/08/10 12:24:54;;;;;;;4.10;1.88;;;27.90;92.20;;;;;;4952802;28;20498;-58
2022/08/10 12:27:30;;;;;;;3.90;1.85;;;28.00;91.60;;;;;;4961930;28;20050;-58
2022/08/10 12:30:13;;;;;;;4.05;2.20;;;27.80;91.20;;;;;;4943239;28;20054;-59
2022/08/10 12:33:06;;;;;;;5.47;1.90;;;27.90;92.80;;;;;;4942224;28;20134;-58
2022/08/10 12:36:01;;;;;;;4.28;2.03;;;28.00;91.30;;;;;;4947297;28;20050;-58
2022/08/10 12:38:38;;;;;;;4.70;2.00;;;28.00;91.20;;;;;;4962836;28;20054;-59
2022/08/10 12:41:29;;;;;;;3.60;2.00;;;27.90;91.00;;;;;;4964929;28;20493;-59
2022/08/10 12:44:08;;;;;;;1.95;1.60;;;27.80;90.70;;;;;;4981983;28;20058;-60
2022/08/10 12:46:38;;;;;;;3.38;2.08;;;27.90;90.90;;;;;;4968996;28;20053;-59
2022/08/10 12:49:25;;;;;;;6.07;1.92;;;27.90;91.10;;;;;;4974949;28;20056;-59
2022/08/10 12:52:19;;;;;;;2.70;1.80;;;27.90;91.30;;;;;;4969503;28;20080;-59
2022/08/10 12:54:46;;;;;;;5.28;2.22;;;27.90;91.10;;;;;;4980009;28;20061;-59
2022/08/10 12:57:18;;;;;;;3.40;1.98;;;27.90;90.90;;;;;;4964246;28;20058;-58
2022/08/10 13:00:01;;;;;;;5.53;1.70;;;27.90;90.20;;;;;;4976760;28;20540;-59
2022/08/10 13:02:33;;;;;;;2.58;1.80;;;27.80;90.90;;;;;;4982268;28;20065;-59
2022/08/10 13:05:04;;;;;;;;;;;27.90;91.10;;;;;;4969255;28;20081;-59
2022/08/10 13:07:36;;;;;;;3.17;1.80;;;28.00;91.30;;;;;;4987817;28;19930;-59
2022/08/10 13:10:15;;;;;;;3.05;1.88;;;27.90;91.70;;;;;;4980959;28;20073;-59
2022/08/10 13:12:53;;;;;;;3.53;1.98;;;28.00;92.00;;;;;;4962883;28;20140;-58
2022/08/10 13:15:30;;;;;;;4.13;1.80;;;28.00;90.80;;;;;;4974682;28;20064;-59
2022/08/10 13:18:00;;;;;;;4.57;1.77;;;27.90;90.90;;;;;;4945179;28;20498;-59
2022/08/10 13:20:34;;;;;;;1.98;1.67;;;28.00;90.80;;;;;;4982794;28;20061;-59
2022/08/10 13:23:04;;;;;;;2.05;1.52;;;28.00;91.00;;;;;;4996920;28;20051;-58
2022/08/10 13:25:42;;;;;;;3.67;1.92;;;28.10;90.70;;;;;;4947090;28;20043;-59
2022/08/10 13:28:20;;;;;;;4.53;2.00;;;28.10;90.40;;;;;;4992700;28;20138;-59
2022/08/10 13:30:48;;;;;;;3.47;1.73;;;28.00;90.30;;;;;;4933298;28;20401;-58
2022/08/10 13:33:24;;;;;;;5.38;1.70;;;28.00;90.20;;;;;;4990448;28;20136;-59
2022/08/10 13:35:56;;;;;;;6.85;1.85;;;27.90;90.20;;;;;;4940940;28;20729;-59
2022/08/10 13:38:24;;;;;;;4.60;1.60;;;27.90;90.40;;;;;;4931645;28;20183;-58